.
WxDataArchive / Data Records for 2007-02-12
2007-02-11 February 2007 2007-02-13

Data Records for Monday, 12 February 2007

Time	Temp	Chill	HIndex	Humid	Dewpt	 Wind 	HiWind	WindDir	Rain 	Barom 
-----	----	-----	------	-----	-----	------	------	-------	-----	----- 
00:00	27.0	27.0	27.0	58	14.2	2	5	248	0.00	30.221 
00:05	27.0	27.0	27.0	57	13.8	2	5	248	0.00	30.218 
00:10	27.0	27.0	27.0	58	14.2	2	5	248	0.00	30.219 
00:15	27.0	27.0	27.0	58	14.2	2	5	248	0.00	30.221 
00:20	27.0	27.0	27.0	58	14.2	2	6	248	0.00	30.221 
00:25	27.0	27.0	27.0	58	14.2	2	6	248	0.00	30.220 
00:30	27.0	27.0	27.0	58	14.2	2	6	248	0.00	30.220 
00:35	26.9	26.9	26.9	58	14.1	2	7	248	0.00	30.220 
00:40	26.9	26.9	26.9	59	14.5	2	5	225	0.00	30.221 
00:45	26.9	26.9	26.9	59	14.5	1	3	248	0.00	30.220 
00:50	26.9	26.9	26.9	60	14.9	1	5	270	0.00	30.220 
00:55	26.9	26.9	26.9	60	14.9	1	4	248	0.00	30.220 
01:00	26.9	26.9	26.9	59	14.5	1	4	248	0.00	30.220 
01:05	26.9	26.9	26.9	60	14.9	1	3	248	0.00	30.219 
01:10	26.9	26.9	26.9	60	14.9	1	4	248	0.00	30.218 
01:15	26.7	26.7	26.7	60	14.7	1	4	248	0.00	30.217 
01:20	26.7	26.7	26.7	60	14.7	1	3	248	0.00	30.217 
01:25	26.7	26.7	26.7	60	14.7	1	6	248	0.00	30.217 
01:30	26.7	26.7	26.7	60	14.7	1	4	248	0.00	30.216 
01:35	26.7	26.7	26.7	61	15.1	1	3	248	0.00	30.216 
01:40	26.7	26.7	26.7	62	15.5	0	3	248	0.00	30.214 
01:45	26.6	26.6	26.6	63	15.7	0	1	270	0.00	30.212 
01:50	26.6	26.6	26.6	63	15.7	0	2	270	0.00	30.209 
01:55	26.6	26.6	26.6	62	15.4	1	3	270	0.00	30.205 
02:00	26.6	26.6	26.6	62	15.4	1	3	225	0.00	30.205 
02:05	26.6	26.6	26.6	63	15.7	0	3	248	0.00	30.203 
02:10	26.4	26.4	26.4	62	15.2	1	4	248	0.00	30.201 
02:15	26.4	26.4	26.4	62	15.2	1	3	248	0.00	30.202 
02:20	26.6	26.6	26.6	62	15.4	1	2	248	0.00	30.200 
02:25	26.6	26.6	26.6	62	15.4	1	3	248	0.00	30.203 
02:30	26.6	26.6	26.6	62	15.4	0	3	248	0.00	30.205 
02:35	26.6	26.6	26.6	61	15.0	0	4	248	0.00	30.204 
02:40	26.7	26.7	26.7	59	14.3	1	4	248	0.00	30.207 
02:45	26.7	26.7	26.7	60	14.7	1	4	248	0.00	30.205 
02:50	26.7	26.7	26.7	60	14.7	0	2	248	0.00	30.203 
02:55	26.7	26.7	26.7	60	14.7	0	2	248	0.00	30.201 
03:00	26.7	26.7	26.7	59	14.3	0	2	248	0.00	30.204 
03:05	26.7	26.7	26.7	58	13.9	1	3	248	0.00	30.204 
03:10	26.9	26.9	26.9	58	14.1	0	3	248	0.00	30.205 
03:15	26.9	26.9	26.9	60	14.9	0	2	248	0.00	30.204 
03:20	26.7	26.7	26.7	61	15.1	0	1	248	0.00	30.203 
03:25	26.7	26.7	26.7	61	15.1	0	1	248	0.00	30.202 
03:30	26.6	26.6	26.6	61	15.0	0	0	---	0.00	30.201 
03:35	26.6	26.6	26.6	61	15.0	0	0	---	0.00	30.200 
03:40	26.6	26.6	26.6	61	15.0	0	0	---	0.00	30.199 
03:45	26.4	26.4	26.4	63	15.5	0	0	---	0.00	30.197 
03:50	26.4	26.4	26.4	64	15.9	0	0	---	0.00	30.197 
03:55	26.3	26.3	26.3	64	15.8	0	0	---	0.00	30.194 
04:00	26.3	26.3	26.3	64	15.8	0	0	---	0.00	30.194 
04:05	26.3	26.3	26.3	63	15.4	0	0	---	0.00	30.192 
04:10	26.3	26.3	26.3	65	16.2	0	0	---	0.00	30.194 
04:15	26.3	26.3	26.3	66	16.5	0	0	---	0.00	30.197 
04:20	26.3	26.3	26.3	68	17.2	0	0	---	0.00	30.195 
04:25	26.1	26.1	26.1	68	17.0	0	1	248	0.00	30.192 
04:30	26.0	26.0	26.0	68	16.9	0	1	248	0.00	30.190 
04:35	26.0	26.0	26.0	69	17.2	0	0	---	0.00	30.192 
04:40	25.8	25.8	25.8	69	17.1	0	0	---	0.00	30.193 
04:45	25.7	25.7	25.7	69	17.0	0	0	---	0.00	30.192 
04:50	25.7	25.7	25.7	70	17.3	0	0	---	0.00	30.189 
04:55	25.6	25.6	25.6	71	17.5	0	1	248	0.00	30.189 
05:00	25.6	25.6	25.6	71	17.5	0	0	---	0.00	30.192 
05:05	25.4	25.4	25.4	72	17.7	0	0	---	0.00	30.194 
05:10	25.4	25.4	25.4	73	18.0	0	0	---	0.00	30.194 
05:15	25.4	25.4	25.4	73	18.0	0	0	---	0.00	30.196 
05:20	25.4	25.4	25.4	74	18.3	0	0	---	0.00	30.193 
05:25	25.3	25.3	25.3	75	18.5	0	0	---	0.00	30.188 
05:30	25.3	25.3	25.3	76	18.8	0	0	---	0.00	30.190 
05:35	25.1	25.1	25.1	77	18.9	0	0	---	0.00	30.188 
05:40	25.1	25.1	25.1	77	18.9	0	0	---	0.00	30.185 
05:45	25.1	25.1	25.1	77	18.9	0	0	---	0.00	30.185 
05:50	25.1	25.1	25.1	77	18.9	0	1	248	0.00	30.184 
05:55	25.0	25.0	25.0	79	19.4	0	1	248	0.00	30.183 
06:00	25.0	25.0	25.0	80	19.7	0	0	---	0.00	30.182 
06:05	25.0	25.0	25.0	80	19.7	0	0	---	0.00	30.181 
06:10	24.8	24.8	24.8	81	19.8	0	0	---	0.00	30.184 
06:15	24.8	24.8	24.8	81	19.8	0	0	---	0.00	30.187 
06:20	24.8	24.8	24.8	82	20.1	0	0	---	0.00	30.185 
06:25	24.7	24.7	24.7	82	20.0	0	0	---	0.00	30.184 
06:30	24.7	24.7	24.7	83	20.3	0	2	248	0.00	30.182 
06:35	24.7	24.7	24.7	83	20.3	0	1	248	0.00	30.186 
06:40	24.5	24.5	24.5	83	20.1	0	1	248	0.00	30.188 
06:45	24.5	24.5	24.5	84	20.4	0	1	248	0.00	30.186 
06:50	24.5	24.5	24.5	84	20.4	0	1	248	0.00	30.185 
06:55	24.4	24.4	24.4	84	20.3	0	1	248	0.00	30.187 
07:00	24.2	24.2	24.2	84	20.1	0	2	248	0.00	30.189 
07:05	24.2	24.2	24.2	85	20.4	0	1	248	0.00	30.194 
07:10	24.2	24.2	24.2	85	20.4	0	1	248	0.00	30.197 
07:15	24.1	24.1	24.1	85	20.3	0	0	---	0.00	30.200 
07:20	24.1	24.1	24.1	86	20.5	0	2	248	0.00	30.201 
07:25	24.1	24.1	24.1	86	20.5	0	0	---	0.00	30.201 
07:30	24.1	24.1	24.1	86	20.5	0	1	248	0.00	30.199 
07:35	24.1	24.1	24.1	86	20.5	0	0	---	0.00	30.199 
07:40	24.1	24.1	24.1	87	20.8	0	2	248	0.00	30.193 
07:45	24.1	24.1	24.1	87	20.8	0	1	248	0.00	30.196 
07:50	24.1	24.1	24.1	87	20.8	0	1	248	0.00	30.195 
07:55	24.1	24.1	24.1	87	20.8	0	1	248	0.00	30.194 
08:00	24.1	24.1	24.1	88	21.1	0	1	248	0.00	30.196 
08:05	24.2	24.2	24.2	88	21.2	0	0	---	0.00	30.196 
08:10	24.2	24.2	24.2	88	21.2	0	1	248	0.00	30.194 
08:15	24.4	24.4	24.4	88	21.4	0	1	248	0.00	30.194 
08:20	24.4	24.4	24.4	88	21.4	1	2	248	0.00	30.195 
08:25	24.4	24.4	24.4	88	21.4	0	2	248	0.00	30.195 
08:30	24.4	24.4	24.4	88	21.4	0	2	248	0.00	30.195 
08:35	24.4	24.4	24.4	88	21.4	1	2	202	0.00	30.194 
08:40	24.4	24.4	24.4	88	21.4	0	1	202	0.00	30.195 
08:45	24.4	24.4	24.4	88	21.4	0	1	202	0.00	30.195 
08:50	24.5	24.5	24.5	88	21.5	0	2	202	0.00	30.198 
08:55	24.7	24.7	24.7	88	21.7	1	3	112	0.00	30.194 
09:00	24.7	24.7	24.7	88	21.7	1	4	112	0.00	30.195 
09:05	24.7	24.7	24.7	88	21.7	1	3	90	0.00	30.195 
09:10	24.8	24.8	24.8	88	21.8	1	4	90	0.00	30.194 
09:15	25.1	25.1	25.1	88	22.1	1	3	90	0.00	30.193 
09:20	25.3	25.3	25.3	87	22.0	1	3	90	0.00	30.196 
09:25	25.3	25.3	25.3	87	22.0	1	2	90	0.00	30.197 
09:30	25.3	25.3	25.3	87	22.0	1	3	90	0.00	30.199 
09:35	25.4	25.4	25.4	87	22.1	1	3	90	0.00	30.199 
09:40	25.6	25.6	25.6	86	22.0	1	3	90	0.00	30.197 
09:45	25.7	25.7	25.7	87	22.4	1	2	90	0.00	30.197 
09:50	26.0	26.0	26.0	86	22.4	1	3	90	0.00	30.198 
09:55	26.1	26.1	26.1	85	22.2	1	2	90	0.00	30.199 
10:00	26.3	26.3	26.3	85	22.4	1	3	90	0.00	30.200 
10:05	26.6	26.6	26.6	85	22.7	1	3	90	0.00	30.200 
10:10	26.7	26.7	26.7	85	22.8	2	3	90	0.00	30.198 
10:15	26.9	26.9	26.9	85	23.0	1	3	90	0.00	30.192 
10:20	27.3	27.3	27.3	84	23.1	1	5	112	0.00	30.191 
10:25	27.6	27.6	27.6	84	23.4	2	4	112	0.00	30.194 
10:30	27.8	27.8	27.8	84	23.6	1	3	112	0.00	30.193 
10:35	27.6	27.6	27.6	84	23.4	2	4	90	0.00	30.192 
10:40	27.6	27.6	27.6	84	23.4	2	4	112	0.00	30.194 
10:45	27.8	27.8	27.8	84	23.6	1	3	112	0.00	30.194 
10:50	28.2	28.2	28.2	84	24.0	1	3	112	0.00	30.195 
10:55	28.5	28.5	28.5	83	24.0	2	4	112	0.00	30.194 
11:00	28.5	28.5	28.5	83	24.0	1	3	112	0.00	30.196 
11:05	29.0	29.0	29.0	83	24.5	1	4	135	0.00	30.194 
11:10	29.4	29.4	29.4	81	24.3	1	3	135	0.00	30.193 
11:15	29.5	29.5	29.5	81	24.4	1	3	112	0.00	30.194 
11:20	30.0	30.0	30.0	80	24.6	1	2	135	0.01	30.194 
11:25	30.1	30.1	30.1	79	24.4	1	3	135	0.00	30.194 
11:30	30.3	30.3	30.3	77	24.0	1	3	112	0.00	30.195 
11:35	30.6	30.6	30.6	76	24.0	1	2	112	0.00	30.196 
11:40	30.6	30.6	30.6	73	23.0	1	4	135	0.00	30.196 
11:45	30.4	30.4	30.4	73	22.8	1	3	112	0.00	30.202 
11:50	30.6	30.6	30.6	73	23.0	0	2	112	0.00	30.206 
11:55	30.9	30.9	30.9	72	23.0	1	3	112	0.00	30.204 
12:00	30.4	30.4	30.4	72	22.5	1	3	112	0.00	30.207 
12:05	30.4	30.4	30.4	71	22.1	0	1	112	0.00	30.205 
12:10	30.3	30.3	30.3	70	21.7	1	3	112	0.00	30.209 
12:15	30.1	30.1	30.1	71	21.9	1	2	112	0.00	30.202 
12:20	30.3	30.3	30.3	70	21.7	0	1	112	0.00	30.195 
12:25	30.4	30.4	30.4	69	21.5	1	2	112	0.00	30.194 
12:30	30.6	30.6	30.6	69	21.7	1	2	112	0.00	30.188 
12:35	30.7	30.7	30.7	66	20.7	1	3	90	0.00	30.186 
12:40	30.7	30.7	30.7	66	20.7	1	3	90	0.00	30.188 
12:45	30.7	30.7	30.7	65	20.3	1	3	112	0.00	30.187 
12:50	30.7	30.7	30.7	65	20.3	1	4	112	0.00	30.184 
12:55	30.7	30.7	30.7	65	20.3	2	4	112	0.00	30.177 
13:00	30.7	30.7	30.7	64	20.0	2	4	112	0.00	30.177 
13:05	30.9	30.9	30.9	65	20.5	1	3	90	0.00	30.176 
13:10	30.9	30.9	30.9	64	20.2	2	4	112	0.00	30.174 
13:15	30.9	30.9	30.9	65	20.5	2	4	112	0.00	30.169 
13:20	30.9	30.9	30.9	63	19.8	3	5	112	0.00	30.166 
13:25	31.0	31.0	31.0	64	20.3	2	5	112	0.00	30.161 
13:30	31.2	31.2	31.2	64	20.5	3	5	112	0.00	30.157 
13:35	31.2	31.2	31.2	64	20.5	2	4	112	0.00	30.155 
13:40	31.3	31.3	31.3	63	20.2	2	5	112	0.00	30.153 
13:45	31.3	31.3	31.3	63	20.2	2	6	112	0.00	30.149 
13:50	31.2	31.2	31.2	64	20.5	3	7	112	0.00	30.145 
13:55	31.2	31.2	31.2	63	20.1	3	6	112	0.00	30.146 
14:00	31.2	31.2	31.2	63	20.1	2	6	90	0.00	30.150 
14:05	31.2	31.2	31.2	65	20.8	3	6	112	0.00	30.149 
14:10	31.5	31.5	31.5	65	21.1	2	5	112	0.00	30.146 
14:15	31.5	31.5	31.5	65	21.1	2	6	112	0.00	30.143 
14:20	31.5	31.5	31.5	64	20.7	3	7	112	0.00	30.139 
14:25	31.6	31.6	31.6	64	20.8	1	4	112	0.00	30.142 
14:30	31.8	31.8	31.8	64	21.0	1	4	22	0.00	30.143 
14:35	31.8	31.8	31.8	64	21.0	2	5	112	0.00	30.143 
14:40	31.8	31.8	31.8	65	21.4	2	7	90	0.00	30.143 
14:45	31.9	31.9	31.9	67	22.2	2	5	112	0.00	30.141 
14:50	31.9	31.9	31.9	69	22.9	2	7	112	0.00	30.138 
14:55	31.8	31.8	31.8	69	22.8	3	7	112	0.00	30.133 
15:00	31.6	31.6	31.6	73	24.0	2	10	22	0.00	30.136 
15:05	31.5	31.5	31.5	75	24.5	2	6	112	0.00	30.136 
15:10	31.5	31.5	31.5	77	25.1	1	5	112	0.00	30.135 
15:15	31.2	31.2	31.2	77	24.8	3	7	112	0.00	30.142 
15:20	31.0	31.0	31.0	79	25.3	2	9	112	0.00	30.141 
15:25	31.0	31.0	31.0	79	25.3	2	6	112	0.00	30.143 
15:30	30.9	30.9	30.9	79	25.2	2	5	112	0.00	30.145 
15:35	31.0	31.0	31.0	79	25.3	2	6	90	0.00	30.146 
15:40	30.9	30.9	30.9	79	25.2	3	6	112	0.00	30.147 
15:45	30.9	30.9	30.9	80	25.5	2	5	90	0.00	30.146 
15:50	30.7	30.7	30.7	80	25.3	3	9	112	0.00	30.147 
15:55	30.6	30.6	30.6	81	25.5	3	7	112	0.00	30.146 
16:00	30.6	30.6	30.6	81	25.5	3	9	112	0.00	30.146 
16:05	30.6	26.5	30.6	81	25.5	4	7	112	0.00	30.147 
16:10	30.4	30.4	30.4	81	25.3	3	7	112	0.00	30.147 
16:15	30.4	30.4	30.4	81	25.3	3	9	90	0.00	30.147 
16:20	30.6	30.6	30.6	81	25.5	2	5	112	0.00	30.146 
16:25	30.6	30.6	30.6	81	25.5	2	7	112	0.00	30.147 
16:30	30.6	30.6	30.6	81	25.5	2	6	90	0.00	30.148 
16:35	30.4	30.4	30.4	81	25.3	3	7	112	0.00	30.151 
16:40	30.4	30.4	30.4	81	25.3	3	7	112	0.00	30.151 
16:45	30.4	30.4	30.4	81	25.3	2	5	112	0.00	30.154 
16:50	30.3	30.3	30.3	81	25.2	3	7	112	0.00	30.156 
16:55	30.3	30.3	30.3	82	25.5	3	5	112	0.00	30.157 
17:00	30.3	30.3	30.3	82	25.5	2	5	112	0.00	30.158 
17:05	30.3	30.3	30.3	82	25.5	3	6	90	0.00	30.160 
17:10	30.3	30.3	30.3	82	25.5	3	5	90	0.00	30.156 
17:15	30.3	30.3	30.3	82	25.5	2	6	90	0.00	30.159 
17:20	30.3	30.3	30.3	82	25.5	2	5	90	0.00	30.161 
17:25	30.3	30.3	30.3	83	25.8	1	4	112	0.00	30.163 
17:30	30.3	30.3	30.3	83	25.8	1	3	112	0.00	30.163 
17:35	30.1	30.1	30.1	83	25.6	1	5	90	0.00	30.165 
17:40	30.1	30.1	30.1	83	25.6	2	6	112	0.00	30.165 
17:45	30.0	30.0	30.0	83	25.5	1	6	90	0.00	30.165 
17:50	30.0	30.0	30.0	83	25.5	1	3	90	0.00	30.164 
17:55	30.0	30.0	30.0	83	25.5	1	4	90	0.00	30.167 
18:00	29.8	29.8	29.8	82	25.0	2	6	112	0.00	30.173 
18:05	29.8	29.8	29.8	82	25.0	2	6	112	0.00	30.175 
18:10	29.7	29.7	29.7	83	25.2	2	5	112	0.00	30.178 
18:15	29.7	29.7	29.7	83	25.2	1	6	135	0.00	30.175 
18:20	29.7	29.7	29.7	83	25.2	1	4	68	0.00	30.176 
18:25	29.5	29.5	29.5	83	25.0	2	6	112	0.00	30.175 
18:30	29.5	29.5	29.5	83	25.0	3	7	112	0.00	30.175 
18:35	29.5	29.5	29.5	84	25.3	1	5	90	0.00	30.178 
18:40	29.5	29.5	29.5	84	25.3	2	6	112	0.00	30.181 
18:45	29.5	29.5	29.5	84	25.3	3	9	112	0.00	30.182 
18:50	29.5	29.5	29.5	84	25.3	3	9	90	0.00	30.181 
18:55	29.5	29.5	29.5	84	25.3	2	6	112	0.00	30.184 
19:00	29.5	29.5	29.5	84	25.3	3	7	112	0.00	30.185 
19:05	29.5	29.5	29.5	84	25.3	3	5	90	0.00	30.190 
19:10	29.5	29.5	29.5	85	25.6	2	5	112	0.00	30.189 
19:15	29.5	29.5	29.5	85	25.6	2	6	112	0.00	30.188 
19:20	29.4	29.4	29.4	85	25.5	1	7	112	0.00	30.191 
19:25	29.4	29.4	29.4	86	25.7	3	7	112	0.00	30.190 
19:30	29.4	29.4	29.4	86	25.7	3	5	112	0.00	30.195 
19:35	29.4	29.4	29.4	86	25.7	3	7	112	0.00	30.196 
19:40	29.4	29.4	29.4	86	25.7	3	7	112	0.00	30.193 
19:45	29.4	29.4	29.4	86	25.7	2	6	112	0.00	30.194 
19:50	29.3	29.3	29.3	86	25.6	2	5	112	0.00	30.191 
19:55	29.3	29.3	29.3	86	25.6	3	7	112	0.00	30.190 
20:00	29.3	29.3	29.3	86	25.6	3	7	112	0.00	30.192 
20:05	29.3	29.3	29.3	86	25.6	3	7	112	0.00	30.190 
20:10	29.3	29.3	29.3	86	25.6	3	7	112	0.00	30.192 
20:15	29.3	29.3	29.3	86	25.6	3	9	112	0.00	30.192 
20:20	29.3	29.3	29.3	86	25.6	2	7	112	0.00	30.193 
20:25	29.1	29.1	29.1	86	25.4	3	7	112	0.00	30.193 
20:30	29.1	29.1	29.1	86	25.4	3	7	90	0.00	30.194 
20:35	29.1	24.7	29.1	86	25.4	4	9	112	0.00	30.193 
20:40	29.1	24.7	29.1	86	25.4	4	9	112	0.00	30.192 
20:45	29.1	29.1	29.1	86	25.4	3	7	112	0.00	30.192 
20:50	29.1	24.7	29.1	86	25.4	4	8	112	0.00	30.190 
20:55	29.1	24.7	29.1	86	25.4	4	10	112	0.00	30.194 
21:00	29.1	29.1	29.1	86	25.4	3	7	90	0.00	30.192 
21:05	29.0	29.0	29.0	86	25.3	3	8	90	0.00	30.192 
21:10	29.0	24.6	29.0	86	25.3	4	11	90	0.00	30.192 
21:15	29.0	29.0	29.0	87	25.6	3	10	112	0.00	30.192 
21:20	29.0	29.0	29.0	87	25.6	3	9	90	0.00	30.194 
21:25	29.0	23.6	29.0	87	25.6	5	12	112	0.00	30.195 
21:30	29.0	29.0	29.0	87	25.6	3	8	112	0.00	30.195 
21:35	28.8	28.8	28.8	87	25.4	3	10	112	0.00	30.195 
21:40	28.7	23.2	28.7	86	25.1	5	10	112	0.00	30.195 
21:45	28.7	28.7	28.7	86	25.1	3	9	112	0.00	30.192 
21:50	28.5	23.0	28.5	86	24.9	5	11	112	0.00	30.194 
21:55	28.4	22.8	28.4	86	24.8	5	13	112	0.00	30.195 
22:00	28.2	21.7	28.2	86	24.6	6	12	112	0.00	30.194 
22:05	28.2	23.7	28.2	85	24.3	4	11	112	0.00	30.194 
22:10	28.1	23.6	28.1	85	24.2	4	10	112	0.00	30.196 
22:15	28.1	23.6	28.1	85	24.2	4	10	90	0.00	30.194 
22:20	27.9	22.3	27.9	85	24.0	5	14	112	0.00	30.196 
22:25	27.8	27.8	27.8	85	23.9	3	9	112	0.00	30.194 
22:30	27.5	22.9	27.5	85	23.6	4	11	112	0.00	30.194 
22:35	27.3	27.3	27.3	85	23.4	3	6	90	0.00	30.194 
22:40	27.2	27.2	27.2	85	23.3	3	12	112	0.00	30.195 
22:45	27.2	20.5	27.2	85	23.3	6	13	112	0.00	30.196 
22:50	27.2	22.5	27.2	85	23.3	4	13	112	0.00	30.194 
22:55	27.0	22.3	27.0	85	23.1	4	11	112	0.00	30.193 
23:00	27.0	27.0	27.0	86	23.4	3	7	112	0.00	30.194 
23:05	27.0	27.0	27.0	86	23.4	3	11	90	0.00	30.193 
23:10	26.9	22.2	26.9	86	23.3	4	13	112	0.00	30.193 
23:15	26.9	19.4	26.9	86	23.3	7	17	112	0.00	30.191 
23:20	26.9	22.2	26.9	86	23.3	4	10	112	0.00	30.193 
23:25	26.7	20.9	26.7	86	23.1	5	12	112	0.00	30.194 
23:30	26.6	19.8	26.6	86	23.0	6	15	112	0.00	30.194 
23:35	26.6	26.6	26.6	86	23.0	3	10	112	0.00	30.195 
23:40	26.4	19.6	26.4	86	22.8	6	13	112	0.00	30.195 
23:45	26.4	18.7	26.4	86	22.8	7	17	112	0.00	30.194 
23:50	26.3	17.3	26.3	85	22.4	9	16	112	0.00	30.195 
23:55	26.1	19.2	26.1	85	22.2	6	14	112	0.00	30.199 

CoCoRaHS
IN-AL-39
A2 Web Hosting
Creative Commons License
GoDaddy
Look for:

loaded 2017-12-13 10:03:43 • last modified 2010-11-18 10:43:29
Privacy PolicyDisclaimer
• wx.awcolley.com is powered by PmWiki v.2002016 •
• all content (unless otherwise noted) © 2017 A W Colley